Time;durP1;ratioP1;P1;durP2;ratioP2;P2;SDS_P1;SDS_P2;PMS_P1;PMS_P2;Temp;Humidity;BMP_temperature;BMP_pressure;BME280_temperature;BME280_humidity;BME280_pressure;Samples;Min_cycle;Max_cycle;Signal;HPM_P1;HPM_P2
2024/02/10 00:00:44;;;;;;;12.13;5.07;;;;;;;;;;5080104;28;20278;-92
2024/02/10 00:03:11;;;;;;;5.87;4.70;;;;;;;;;;5094226;28;20652;-92
2024/02/10 00:05:45;;;;;;;5.43;4.93;;;;;;;;;;5112693;28;20636;-92
2024/02/10 00:08:11;;;;;;;6.23;5.37;;;;;;;;;;5114832;28;20207;-92
2024/02/10 00:10:39;;;;;;;5.90;4.53;;;;;;;;;;5080488;28;20214;-91
2024/02/10 00:13:06;;;;;;;7.20;5.07;;;;;;;;;;5093657;28;20647;-90
2024/02/10 00:15:32;;;;;;;6.90;5.00;;;;;;;;;;5093446;28;20203;-91
2024/02/10 00:17:59;;;;;;;8.73;5.00;;;;;;;;;;5093937;28;20211;-91
2024/02/10 00:20:26;;;;;;;5.77;4.47;;;;;;;;;;5101092;28;20216;-91
2024/02/10 00:22:55;;;;;;;6.10;4.50;;;;;;;;;;5085810;28;20259;-91
2024/02/10 00:25:23;;;;;;;7.90;4.80;;;;;;;;;;5093485;28;20225;-90
2024/02/10 00:27:54;;;;;;;6.00;4.90;;;;;;;;;;5093588;28;20208;-90
2024/02/10 00:30:23;;;;;;;8.00;4.67;;;;;;;;;;5092990;28;20288;-90
2024/02/10 00:32:51;;;;;;;7.53;4.87;;;;;;;;;;5092645;28;20281;-91
2024/02/10 00:35:21;;;;;;;7.40;4.87;;;;;;;;;;5093702;28;20206;-91
2024/02/10 00:37:50;;;;;;;11.83;5.70;;;;;;;;;;5093508;28;20216;-91
2024/02/10 00:40:19;;;;;;;10.37;6.23;;;;;;;;;;5093370;28;20214;-91
2024/02/10 00:42:46;;;;;;;6.23;5.33;;;;;;;;;;5093422;28;20204;-90
2024/02/10 00:45:13;;;;;;;8.60;6.47;;;;;;;;;;5093265;28;20205;-92
2024/02/10 00:47:45;;;;;;;8.07;5.83;;;;;;;;;;5096299;28;20205;-91
2024/02/10 00:50:12;;;;;;;7.70;5.60;;;;;;;;;;5090646;28;20237;-91
2024/02/10 00:52:40;;;;;;;6.87;5.70;;;;;;;;;;5109926;28;20195;-91
2024/02/10 00:55:07;;;;;;;9.03;6.13;;;;;;;;;;5101675;28;20216;-90
2024/02/10 00:57:35;;;;;;;7.13;5.27;;;;;;;;;;5101165;28;20254;-91
2024/02/10 01:00:03;;;;;;;11.30;4.90;;;;;;;;;;5073031;28;20209;-91
2024/02/10 01:02:31;;;;;;;8.30;5.23;;;;;;;;;;5079324;28;20236;-91
2024/02/10 01:04:57;;;;;;;6.00;5.40;;;;;;;;;;5093132;28;20202;-91
2024/02/10 01:07:24;;;;;;;6.33;5.20;;;;;;;;;;5092584;28;20208;-91
2024/02/10 01:09:51;;;;;;;8.10;5.10;;;;;;;;;;5093086;28;20273;-90
2024/02/10 01:12:18;;;;;;;7.83;5.43;;;;;;;;;;5079626;28;20277;-91
2024/02/10 01:14:46;;;;;;;5.83;5.13;;;;;;;;;;5092203;28;20204;-90
2024/02/10 01:17:13;;;;;;;8.30;4.80;;;;;;;;;;5092656;28;20219;-91
2024/02/10 01:19:49;;;;;;;8.77;5.43;;;;;;;;;;5092676;28;20287;-90
2024/02/10 01:22:17;;;;;;;7.97;4.63;;;;;;;;;;5083495;28;20281;-90
2024/02/10 01:24:45;;;;;;;10.47;4.73;;;;;;;;;;5090983;28;20204;-91
2024/02/10 01:27:16;;;;;;;6.90;5.77;;;;;;;;;;5103243;28;20242;-90
2024/02/10 01:29:44;;;;;;;5.67;5.07;;;;;;;;;;5091936;28;20196;-90
2024/02/10 01:32:15;;;;;;;8.63;5.47;;;;;;;;;;5092412;28;20280;-90
2024/02/10 01:34:42;;;;;;;8.30;5.13;;;;;;;;;;5079224;28;20215;-91
2024/02/10 01:37:08;;;;;;;6.80;5.60;;;;;;;;;;5092562;28;20211;-90
2024/02/10 01:39:38;;;;;;;10.60;5.50;;;;;;;;;;5091945;28;20273;-90
2024/02/10 01:42:05;;;;;;;7.37;6.57;;;;;;;;;;5092655;28;20219;-91
2024/02/10 01:44:32;;;;;;;8.93;5.10;;;;;;;;;;5091954;28;20196;-91
2024/02/10 01:46:59;;;;;;;6.90;6.00;;;;;;;;;;5092558;28;20250;-90
2024/02/10 01:49:28;;;;;;;10.13;5.97;;;;;;;;;;5078652;28;20208;-90
2024/02/10 01:51:55;;;;;;;10.33;5.53;;;;;;;;;;5092361;28;20404;-90
2024/02/10 01:54:22;;;;;;;7.63;5.90;;;;;;;;;;5092227;28;20204;-90
2024/02/10 01:56:53;;;;;;;11.30;5.53;;;;;;;;;;5092500;28;20257;-90
2024/02/10 01:59:21;;;;;;;8.40;5.87;;;;;;;;;;5085034;28;20204;-90
2024/02/10 02:01:49;;;;;;;9.87;6.23;;;;;;;;;;5073935;28;20225;-90
2024/02/10 02:04:16;;;;;;;8.10;5.80;;;;;;;;;;5104483;28;20637;-90
2024/02/10 02:06:45;;;;;;;11.80;6.90;;;;;;;;;;5090735;28;20291;-91
2024/02/10 02:09:12;;;;;;;6.93;6.27;;;;;;;;;;5080403;28;20204;-90
2024/02/10 02:11:49;;;;;;;13.10;6.60;;;;;;;;;;5092104;28;20253;-90
2024/02/10 02:14:16;;;;;;;6.50;5.47;;;;;;;;;;5092506;28;20200;-90
2024/02/10 02:16:46;;;;;;;19.83;12.20;;;;;;;;;;5074982;28;20201;-90
2024/02/10 02:19:14;;;;;;;12.40;8.23;;;;;;;;;;5071946;28;20213;-90
2024/02/10 02:21:41;;;;;;;13.93;8.80;;;;;;;;;;5071841;28;20225;-89
2024/02/10 02:24:09;;;;;;;10.17;7.40;;;;;;;;;;5072052;28;20201;-90
2024/02/10 02:26:36;;;;;;;12.33;7.40;;;;;;;;;;5090261;28;20208;-90
2024/02/10 02:29:08;;;;;;;9.17;5.90;;;;;;;;;;5091749;28;20703;-90
2024/02/10 02:31:37;;;;;;;6.83;5.80;;;;;;;;;;5091332;28;20232;-90
2024/02/10 02:34:04;;;;;;;6.77;5.50;;;;;;;;;;5091750;28;20613;-90
2024/02/10 02:36:32;;;;;;;7.57;5.67;;;;;;;;;;5071756;28;20220;-89
2024/02/10 02:39:00;;;;;;;7.87;5.77;;;;;;;;;;5085318;28;20204;-90
2024/02/10 02:41:28;;;;;;;7.13;6.13;;;;;;;;;;5085164;28;20228;-90
2024/02/10 02:43:55;;;;;;;8.60;6.60;;;;;;;;;;5085231;28;20204;-90
2024/02/10 02:46:23;;;;;;;7.07;6.30;;;;;;;;;;5078876;28;20205;-89
2024/02/10 02:48:53;;;;;;;8.97;7.57;;;;;;;;;;5091833;28;20204;-90
2024/02/10 02:51:21;;;;;;;6.93;6.10;;;;;;;;;;5084252;28;20609;-90
2024/02/10 02:53:50;;;;;;;9.53;6.27;;;;;;;;;;5071691;28;20672;-90
2024/02/10 02:56:18;;;;;;;8.97;6.93;;;;;;;;;;5080890;28;20235;-90
2024/02/10 02:58:49;;;;;;;10.60;8.77;;;;;;;;;;5095157;28;20215;-90
2024/02/10 03:01:16;;;;;;;8.77;6.17;;;;;;;;;;5095261;28;20260;-89
2024/02/10 03:03:44;;;;;;;12.30;7.00;;;;;;;;;;5094894;28;20261;-90
2024/02/10 03:06:11;;;;;;;8.97;5.87;;;;;;;;;;5095054;28;20295;-89
2024/02/10 03:08:42;;;;;;;9.00;7.23;;;;;;;;;;5098743;28;20661;-90
2024/02/10 03:11:09;;;;;;;11.40;6.50;;;;;;;;;;5104313;28;20293;-89
2024/02/10 03:13:35;;;;;;;10.33;6.20;;;;;;;;;;5076980;28;20612;-90
2024/02/10 03:16:05;;;;;;;8.33;6.07;;;;;;;;;;5075331;28;20205;-90
2024/02/10 03:18:32;;;;;;;7.47;6.23;;;;;;;;;;5092966;28;20201;-90
2024/02/10 03:20:59;;;;;;;11.37;7.13;;;;;;;;;;5083248;28;20201;-89
2024/02/10 03:23:27;;;;;;;10.17;8.63;;;;;;;;;;5093103;28;20227;-90
2024/02/10 03:25:56;;;;;;;9.33;7.50;;;;;;;;;;5095094;28;20231;-90
2024/02/10 03:28:24;;;;;;;11.00;7.50;;;;;;;;;;5087663;28;20211;-90
2024/02/10 03:30:51;;;;;;;11.20;8.87;;;;;;;;;;5101747;28;20295;-90
2024/02/10 03:33:19;;;;;;;10.67;8.73;;;;;;;;;;5094518;28;20239;-90
2024/02/10 03:35:47;;;;;;;12.10;9.43;;;;;;;;;;5094861;28;20266;-90
2024/02/10 03:38:14;;;;;;;11.30;8.97;;;;;;;;;;5081198;28;20207;-90
2024/02/10 03:40:41;;;;;;;10.27;8.80;;;;;;;;;;5094251;28;20216;-90
2024/02/10 03:43:09;;;;;;;11.80;8.13;;;;;;;;;;5094650;28;20231;-90
2024/02/10 03:45:36;;;;;;;10.73;8.47;;;;;;;;;;5094122;28;20205;-90
2024/02/10 03:48:06;;;;;;;14.73;8.13;;;;;;;;;;5086881;28;20220;-90
2024/02/10 03:50:35;;;;;;;12.33;9.07;;;;;;;;;;5088592;28;20220;-90
2024/02/10 03:53:01;;;;;;;11.67;7.77;;;;;;;;;;5094366;28;20213;-90
2024/02/10 03:55:30;;;;;;;9.43;8.53;;;;;;;;;;5094169;28;20204;-90
2024/02/10 03:57:59;;;;;;;14.00;6.87;;;;;;;;;;5094749;28;20238;-91
2024/02/10 04:00:26;;;;;;;8.90;7.13;;;;;;;;;;5093917;28;20324;-91
2024/02/10 04:02:53;;;;;;;9.03;7.77;;;;;;;;;;5084322;28;20304;-91
2024/02/10 04:05:20;;;;;;;13.20;8.30;;;;;;;;;;5090257;28;20216;-91
2024/02/10 04:07:51;;;;;;;8.63;7.83;;;;;;;;;;5094079;28;20200;-91
2024/02/10 04:10:18;;;;;;;14.83;7.70;;;;;;;;;;5097237;28;20195;-91
2024/02/10 04:12:46;;;;;;;9.73;8.80;;;;;;;;;;5092879;28;20241;-91
2024/02/10 04:15:13;;;;;;;13.30;9.10;;;;;;;;;;5104146;28;20232;-91
2024/02/10 04:17:40;;;;;;;13.90;11.20;;;;;;;;;;5093788;28;20216;-91
2024/02/10 04:20:09;;;;;;;10.53;8.50;;;;;;;;;;5093739;28;20568;-91
2024/02/10 04:22:38;;;;;;;10.40;9.30;;;;;;;;;;5093809;28;20282;-91
2024/02/10 04:25:09;;;;;;;9.20;8.20;;;;;;;;;;5093813;28;20717;-91
2024/02/10 04:27:36;;;;;;;11.40;7.73;;;;;;;;;;5093769;28;20218;-92
2024/02/10 04:30:06;;;;;;;8.00;7.20;;;;;;;;;;5093488;28;20204;-91
2024/02/10 04:32:33;;;;;;;12.43;8.83;;;;;;;;;;5093193;28;20236;-91
2024/02/10 04:35:00;;;;;;;12.97;8.90;;;;;;;;;;5100435;28;20196;-91
2024/02/10 04:37:28;;;;;;;9.27;8.37;;;;;;;;;;5099732;28;20212;-91
2024/02/10 04:39:55;;;;;;;8.77;7.83;;;;;;;;;;5100579;28;20234;-92
2024/02/10 04:42:24;;;;;;;12.97;10.47;;;;;;;;;;5085385;28;20236;-90
2024/02/10 04:44:54;;;;;;;12.97;9.67;;;;;;;;;;5073746;28;20321;-91
2024/02/10 04:47:20;;;;;;;9.53;8.50;;;;;;;;;;5086952;28;20208;-91
2024/02/10 04:49:47;;;;;;;11.93;9.60;;;;;;;;;;5081424;28;20208;-91
2024/02/10 04:52:14;;;;;;;30.53;23.10;;;;;;;;;;5093024;28;20560;-91
2024/02/10 04:54:41;;;;;;;96.77;67.07;;;;;;;;;;5092877;28;20729;-91
2024/02/10 04:57:07;;;;;;;44.10;34.20;;;;;;;;;;5092554;28;20759;-90
2024/02/10 04:59:38;;;;;;;15.60;12.33;;;;;;;;;;5093200;28;20216;-90
2024/02/10 05:02:05;;;;;;;11.57;9.50;;;;;;;;;;5092994;28;20224;-90
2024/02/10 05:04:32;;;;;;;13.47;9.47;;;;;;;;;;5093088;28;20200;-90
2024/02/10 05:06:58;;;;;;;9.00;7.20;;;;;;;;;;5092601;28;20204;-90
2024/02/10 05:09:27;;;;;;;12.87;8.53;;;;;;;;;;5092602;28;20261;-90
2024/02/10 05:11:54;;;;;;;8.97;7.10;;;;;;;;;;5103487;28;20207;-90
2024/02/10 05:14:22;;;;;;;16.77;7.93;;;;;;;;;;5091875;28;20195;-90
2024/02/10 05:16:55;;;;;;;10.27;8.47;;;;;;;;;;5096484;28;20206;-90
2024/02/10 05:19:22;;;;;;;13.53;8.60;;;;;;;;;;5092394;28;20295;-89
2024/02/10 05:21:49;;;;;;;12.83;10.60;;;;;;;;;;5092217;28;20200;-90
2024/02/10 05:24:16;;;;;;;10.20;9.23;;;;;;;;;;5092087;28;20630;-90
2024/02/10 05:26:43;;;;;;;12.33;10.20;;;;;;;;;;5092722;28;20620;-90
2024/02/10 05:29:11;;;;;;;15.90;11.13;;;;;;;;;;5092605;28;20273;-90
2024/02/10 05:31:38;;;;;;;27.63;24.77;;;;;;;;;;5092239;28;20235;-90
2024/02/10 05:34:08;;;;;;;17.33;15.53;;;;;;;;;;5092592;28;20652;-90
2024/02/10 05:36:35;;;;;;;14.17;11.50;;;;;;;;;;5092677;28;20199;-90
2024/02/10 05:39:04;;;;;;;18.60;14.50;;;;;;;;;;5092616;28;20211;-90
2024/02/10 05:41:31;;;;;;;16.47;12.83;;;;;;;;;;5092547;28;20283;-90
2024/02/10 05:43:58;;;;;;;15.67;12.97;;;;;;;;;;5105104;28;20227;-90
2024/02/10 05:46:24;;;;;;;13.23;10.93;;;;;;;;;;5092601;28;20204;-90
2024/02/10 05:48:51;;;;;;;15.33;12.50;;;;;;;;;;5092074;28;20215;-90
2024/02/10 05:51:23;;;;;;;13.80;10.53;;;;;;;;;;5092534;28;20204;-90
2024/02/10 05:53:49;;;;;;;16.03;13.33;;;;;;;;;;5092681;28;20248;-90
2024/02/10 05:56:16;;;;;;;31.47;25.37;;;;;;;;;;5092363;28;20257;-91
2024/02/10 05:58:43;;;;;;;30.33;26.30;;;;;;;;;;5090803;28;20265;-90
2024/02/10 06:01:13;;;;;;;19.53;15.83;;;;;;;;;;5072209;28;20568;-89
2024/02/10 06:03:41;;;;;;;14.80;13.37;;;;;;;;;;5089808;28;20316;-90
2024/02/10 06:06:08;;;;;;;22.03;14.47;;;;;;;;;;5113071;28;20233;-90
2024/02/10 06:08:37;;;;;;;38.60;29.07;;;;;;;;;;5093483;28;20200;-90
2024/02/10 06:11:06;;;;;;;99.53;60.53;;;;;;;;;;5082432;28;20204;-90
2024/02/10 06:13:33;;;;;;;68.33;46.30;;;;;;;;;;5092196;28;20208;-90
2024/02/10 06:16:01;;;;;;;26.83;17.67;;;;;;;;;;5103470;28;20200;-90
2024/02/10 06:18:30;;;;;;;14.37;11.23;;;;;;;;;;5080825;28;20215;-90
2024/02/10 06:20:59;;;;;;;19.30;13.47;;;;;;;;;;5080296;28;20235;-90
2024/02/10 06:23:26;;;;;;;22.57;13.80;;;;;;;;;;5089604;28;20224;-89
2024/02/10 06:25:55;;;;;;;12.03;10.77;;;;;;;;;;5091607;28;20235;-89
2024/02/10 06:28:22;;;;;;;13.67;10.07;;;;;;;;;;5091943;28;20204;-90
2024/02/10 06:30:49;;;;;;;16.57;10.37;;;;;;;;;;5091953;28;20204;-90
2024/02/10 06:33:16;;;;;;;16.13;10.13;;;;;;;;;;5082980;28;20672;-90
2024/02/10 06:35:47;;;;;;;33.60;21.50;;;;;;;;;;5095882;28;20204;-90
2024/02/10 06:38:15;;;;;;;69.23;47.00;;;;;;;;;;5075490;28;20291;-90
2024/02/10 06:40:41;;;;;;;61.80;40.13;;;;;;;;;;5089404;28;20243;-91
2024/02/10 06:43:12;;;;;;;82.60;46.73;;;;;;;;;;5082478;28;20227;-91
2024/02/10 06:45:39;;;;;;;68.40;41.13;;;;;;;;;;5094758;28;20216;-90
2024/02/10 06:48:07;;;;;;;41.30;25.50;;;;;;;;;;5083295;28;20208;-91
2024/02/10 06:50:35;;;;;;;26.80;21.67;;;;;;;;;;5095675;28;20208;-91
2024/02/10 06:53:01;;;;;;;24.43;16.80;;;;;;;;;;5095412;28;20223;-91
2024/02/10 06:55:28;;;;;;;16.83;14.60;;;;;;;;;;5095576;28;20204;-91
2024/02/10 06:57:56;;;;;;;18.00;13.00;;;;;;;;;;5095129;28;20638;-91
2024/02/10 07:00:24;;;;;;;19.33;14.43;;;;;;;;;;5094920;28;20291;-91
2024/02/10 07:02:55;;;;;;;17.97;13.17;;;;;;;;;;5095470;28;20250;-91
2024/02/10 07:05:23;;;;;;;18.50;15.33;;;;;;;;;;5094660;28;21494;-90
2024/02/10 07:07:50;;;;;;;17.43;13.03;;;;;;;;;;5095368;28;20212;-91
2024/02/10 07:10:17;;;;;;;13.73;11.23;;;;;;;;;;5094514;28;20208;-91
2024/02/10 07:12:45;;;;;;;13.97;10.47;;;;;;;;;;5095397;28;20208;-91
2024/02/10 07:15:17;;;;;;;15.33;10.33;;;;;;;;;;5081518;28;20204;-91
2024/02/10 07:17:47;;;;;;;13.13;10.17;;;;;;;;;;5095322;28;20595;-91
2024/02/10 07:20:18;;;;;;;26.67;17.47;;;;;;;;;;5109140;28;20216;-91
2024/02/10 07:22:45;;;;;;;26.47;19.03;;;;;;;;;;5094883;28;20227;-91
2024/02/10 07:25:12;;;;;;;18.93;15.00;;;;;;;;;;5094822;28;20219;-91
2024/02/10 07:27:40;;;;;;;15.23;10.73;;;;;;;;;;5094859;28;20208;-91
2024/02/10 07:30:10;;;;;;;23.70;11.87;;;;;;;;;;5087822;28;20215;-91
2024/02/10 07:32:38;;;;;;;17.77;10.77;;;;;;;;;;5101098;28;20784;-91
2024/02/10 07:35:07;;;;;;;11.90;9.93;;;;;;;;;;5081302;28;20205;-91
2024/02/10 07:37:35;;;;;;;14.20;11.57;;;;;;;;;;5080929;28;20205;-91
2024/02/10 07:40:03;;;;;;;14.53;10.30;;;;;;;;;;5094758;28;20228;-92
2024/02/10 07:42:30;;;;;;;15.73;10.83;;;;;;;;;;5095743;28;20208;-91
2024/02/10 07:44:59;;;;;;;10.97;8.73;;;;;;;;;;5106273;28;20196;-92
2024/02/10 07:47:26;;;;;;;10.53;8.47;;;;;;;;;;5080698;28;20290;-91
2024/02/10 07:49:53;;;;;;;16.17;10.70;;;;;;;;;;5094386;28;20204;-92
2024/02/10 07:52:21;;;;;;;15.47;13.47;;;;;;;;;;5081217;28;20300;-91
2024/02/10 07:54:51;;;;;;;13.80;11.27;;;;;;;;;;5094373;28;20208;-92
2024/02/10 07:57:20;;;;;;;13.87;11.27;;;;;;;;;;5093815;28;20756;-91
2024/02/10 07:59:50;;;;;;;13.93;10.80;;;;;;;;;;5082205;28;20251;-91
2024/02/10 08:02:21;;;;;;;14.80;10.03;;;;;;;;;;5093026;28;20287;-92
2024/02/10 08:04:51;;;;;;;18.90;8.83;;;;;;;;;;5093960;28;20230;-92
2024/02/10 08:07:19;;;;;;;12.53;9.63;;;;;;;;;;5074272;28;20296;-91
2024/02/10 08:09:47;;;;;;;14.47;10.10;;;;;;;;;;5087240;28;20705;-92
2024/02/10 08:12:20;;;;;;;13.03;10.23;;;;;;;;;;5073555;28;20239;-91
2024/02/10 08:14:50;;;;;;;12.40;10.23;;;;;;;;;;5075579;28;20204;-92
2024/02/10 08:17:16;;;;;;;10.37;9.07;;;;;;;;;;5093418;28;20295;-91
2024/02/10 08:19:43;;;;;;;15.07;8.20;;;;;;;;;;5093431;28;20204;-92
2024/02/10 08:22:11;;;;;;;10.37;8.07;;;;;;;;;;5094232;28;20744;-91
2024/02/10 08:24:38;;;;;;;10.33;8.63;;;;;;;;;;5093055;28;20237;-91
2024/02/10 08:27:08;;;;;;;9.40;8.37;;;;;;;;;;5093495;28;20208;-91
2024/02/10 08:29:35;;;;;;;9.73;8.73;;;;;;;;;;5090135;28;20212;-91
2024/02/10 08:32:02;;;;;;;13.53;8.70;;;;;;;;;;5084421;28;20240;-92
2024/02/10 08:34:31;;;;;;;12.20;8.60;;;;;;;;;;5107263;28;20262;-92
2024/02/10 08:36:58;;;;;;;14.30;7.63;;;;;;;;;;5081963;28;20209;-91
2024/02/10 08:39:26;;;;;;;11.07;8.23;;;;;;;;;;5090768;28;20257;-91
2024/02/10 08:41:53;;;;;;;11.53;6.60;;;;;;;;;;5073475;28;20266;-91
2024/02/10 08:44:21;;;;;;;8.97;7.47;;;;;;;;;;5089799;28;20624;-91
2024/02/10 08:46:48;;;;;;;7.30;6.60;;;;;;;;;;5093178;28;20206;-91
2024/02/10 08:49:17;;;;;;;7.87;6.43;;;;;;;;;;5092884;28;20212;-91
2024/02/10 08:51:49;;;;;;;9.90;6.23;;;;;;;;;;5093289;28;20296;-91
2024/02/10 08:54:16;;;;;;;8.50;5.60;;;;;;;;;;5091682;28;20204;-91
2024/02/10 08:56:43;;;;;;;10.73;6.57;;;;;;;;;;5093667;28;20204;-92
2024/02/10 08:59:12;;;;;;;8.70;5.33;;;;;;;;;;5088019;28;20270;-91
2024/02/10 09:01:42;;;;;;;12.93;6.87;;;;;;;;;;5085424;28;20204;-91
2024/02/10 09:04:09;;;;;;;8.77;6.27;;;;;;;;;;5092939;28;20315;-91
2024/02/10 09:06:36;;;;;;;8.40;6.30;;;;;;;;;;5106405;28;20208;-91
2024/02/10 09:09:10;;;;;;;9.17;5.87;;;;;;;;;;5108807;28;20200;-91
2024/02/10 09:11:41;;;;;;;8.67;6.17;;;;;;;;;;5078591;28;20216;-92
2024/02/10 09:14:08;;;;;;;8.57;5.83;;;;;;;;;;5081222;28;20235;-91
2024/02/10 09:16:36;;;;;;;11.77;6.70;;;;;;;;;;5092956;28;20204;-91
2024/02/10 09:19:04;;;;;;;5.70;4.53;;;;;;;;;;5092696;28;20267;-91
2024/02/10 09:21:31;;;;;;;6.00;5.40;;;;;;;;;;5076500;28;20217;-91
2024/02/10 09:23:58;;;;;;;8.30;4.80;;;;;;;;;;5072531;28;20233;-91
2024/02/10 09:26:26;;;;;;;10.63;5.50;;;;;;;;;;5089288;28;20633;-91
2024/02/10 09:28:53;;;;;;;8.83;5.03;;;;;;;;;;5092624;28;20217;-91
2024/02/10 09:31:20;;;;;;;9.73;5.50;;;;;;;;;;5092571;28;20256;-91
2024/02/10 09:33:47;;;;;;;16.50;11.10;;;;;;;;;;5092853;28;20672;-91
2024/02/10 09:36:16;;;;;;;19.43;13.57;;;;;;;;;;5079469;28;20211;-92
2024/02/10 09:38:45;;;;;;;7.90;4.77;;;;;;;;;;5092864;28;20295;-92
2024/02/10 09:41:12;;;;;;;5.43;4.40;;;;;;;;;;5092946;28;20207;-91
2024/02/10 09:43:39;;;;;;;7.20;4.60;;;;;;;;;;5092179;28;20223;-91
2024/02/10 09:46:08;;;;;;;5.50;4.63;;;;;;;;;;5091827;28;20207;-92
2024/02/10 09:48:37;;;;;;;9.70;5.03;;;;;;;;;;5092542;28;20212;-92
2024/02/10 09:51:05;;;;;;;5.63;5.00;;;;;;;;;;5091635;28;20298;-91
2024/02/10 09:53:33;;;;;;;10.07;5.43;;;;;;;;;;5105314;28;20653;-90
2024/02/10 09:56:00;;;;;;;7.77;4.93;;;;;;;;;;5092871;28;20214;-92
2024/02/10 09:58:27;;;;;;;6.00;5.17;;;;;;;;;;5092426;28;20211;-91
2024/02/10 10:00:55;;;;;;;6.27;4.53;;;;;;;;;;5079148;28;20206;-92
2024/02/10 10:03:23;;;;;;;7.60;4.57;;;;;;;;;;5091696;28;20265;-92
2024/02/10 10:05:55;;;;;;;4.30;3.90;;;;;;;;;;5094376;28;20203;-92
2024/02/10 10:08:23;;;;;;;7.00;4.77;;;;;;;;;;5082795;28;20210;-92
2024/02/10 10:10:51;;;;;;;7.80;4.63;;;;;;;;;;5096581;28;20235;-91
2024/02/10 10:13:18;;;;;;;6.33;4.60;;;;;;;;;;5096533;28;20217;-92
2024/02/10 10:15:45;;;;;;;13.70;4.57;;;;;;;;;;5096248;28;20203;-92
2024/02/10 10:18:15;;;;;;;6.70;4.23;;;;;;;;;;5096071;28;20206;-92
2024/02/10 10:20:45;;;;;;;5.80;4.17;;;;;;;;;;5096168;28;20590;-92
2024/02/10 10:23:14;;;;;;;5.43;4.10;;;;;;;;;;5082387;28;20230;-92
2024/02/10 10:25:43;;;;;;;6.17;3.33;;;;;;;;;;5085077;28;20238;-92
2024/02/10 10:28:13;;;;;;;11.30;5.27;;;;;;;;;;5102758;28;20247;-92
2024/02/10 10:30:43;;;;;;;6.27;4.13;;;;;;;;;;5075556;28;20293;-92
2024/02/10 10:33:10;;;;;;;6.47;4.17;;;;;;;;;;5089094;28;20298;-92
2024/02/10 10:35:39;;;;;;;6.47;4.57;;;;;;;;;;5088821;28;20217;-93
2024/02/10 10:38:07;;;;;;;11.37;9.33;;;;;;;;;;5095637;28;20203;-93
2024/02/10 10:40:34;;;;;;;10.20;7.53;;;;;;;;;;5096656;28;20270;-92
2024/02/10 10:43:02;;;;;;;24.80;15.80;;;;;;;;;;5109522;28;20202;-93
2024/02/10 10:45:32;;;;;;;10.87;6.63;;;;;;;;;;5095632;28;20260;-93
2024/02/10 10:47:59;;;;;;;12.50;7.43;;;;;;;;;;5082813;28;20202;-93
2024/02/10 10:50:26;;;;;;;15.43;10.30;;;;;;;;;;5096138;28;20211;-92
2024/02/10 10:52:53;;;;;;;9.37;6.83;;;;;;;;;;5095246;28;20213;-93
2024/02/10 10:55:27;;;;;;;9.97;6.63;;;;;;;;;;5095323;28;20638;-93
2024/02/10 10:57:55;;;;;;;21.40;14.73;;;;;;;;;;5107412;28;20198;-93
2024/02/10 11:00:25;;;;;;;11.00;7.43;;;;;;;;;;5095184;28;20215;-92
2024/02/10 11:02:54;;;;;;;11.30;7.60;;;;;;;;;;5095481;28;20301;-92
2024/02/10 11:05:23;;;;;;;10.77;7.03;;;;;;;;;;5095134;28;20227;-93
2024/02/10 11:08:00;;;;;;;14.33;9.67;;;;;;;;;;5105971;28;20217;-93
2024/02/10 11:10:36;;;;;;;10.83;7.43;;;;;;;;;;5077644;28;20202;-93
2024/02/10 11:13:07;;;;;;;6.60;4.10;;;;;;;;;;5088519;28;20211;-93
2024/02/10 11:15:37;;;;;;;6.97;4.67;;;;;;;;;;5102508;28;20627;-92
2024/02/10 11:18:09;;;;;;;8.93;5.87;;;;;;;;;;5099727;28;20230;-93
2024/02/10 11:20:38;;;;;;;19.23;13.13;;;;;;;;;;5095180;28;20218;-93
2024/02/10 11:23:15;;;;;;;9.33;6.53;;;;;;;;;;5092718;28;20689;-93
2024/02/10 11:25:43;;;;;;;7.03;5.40;;;;;;;;;;5074358;28;21182;-93
2024/02/10 11:28:21;;;;;;;7.30;5.23;;;;;;;;;;5110398;28;20275;-93
2024/02/10 11:30:48;;;;;;;7.47;5.67;;;;;;;;;;5114926;28;20258;-94
2024/02/10 11:33:19;;;;;;;13.63;7.63;;;;;;;;;;5102590;28;20250;-93
2024/02/10 11:35:48;;;;;;;10.17;6.93;;;;;;;;;;5101626;28;20679;-92
2024/02/10 11:38:15;;;;;;;14.33;8.60;;;;;;;;;;5094914;28;20205;-93
2024/02/10 11:40:42;;;;;;;10.27;7.87;;;;;;;;;;5095654;28;20284;-92
2024/02/10 11:43:14;;;;;;;9.67;5.90;;;;;;;;;;5081310;28;20298;-93
2024/02/10 11:45:41;;;;;;;11.63;6.93;;;;;;;;;;5094362;28;20228;-93
2024/02/10 11:48:09;;;;;;;8.20;5.43;;;;;;;;;;5101907;28;20202;-92
2024/02/10 11:50:42;;;;;;;7.93;5.23;;;;;;;;;;5087340;28;20675;-94
2024/02/10 11:53:11;;;;;;;6.93;4.23;;;;;;;;;;5105506;28;20235;-93
2024/02/10 11:55:41;;;;;;;6.40;4.47;;;;;;;;;;5080485;28;20223;-93
2024/02/10 11:58:09;;;;;;;18.30;10.47;;;;;;;;;;5104540;28;20207;-93
2024/02/10 12:00:37;;;;;;;10.10;5.53;;;;;;;;;;5096802;28;20200;-93
2024/02/10 12:03:07;;;;;;;8.03;4.90;;;;;;;;;;5093840;28;20584;-93
2024/02/10 12:05:38;;;;;;;14.80;8.83;;;;;;;;;;5089127;28;20286;-93
2024/02/10 12:08:07;;;;;;;5.50;4.80;;;;;;;;;;5085744;28;20208;-93
2024/02/10 12:10:38;;;;;;;16.37;9.27;;;;;;;;;;5093865;28;20204;-93
2024/02/10 12:13:05;;;;;;;14.40;8.87;;;;;;;;;;5094142;28;20207;-93
2024/02/10 12:15:33;;;;;;;117.30;57.90;;;;;;;;;;5100285;28;20195;-93
2024/02/10 12:18:01;;;;;;;53.13;36.80;;;;;;;;;;5100553;28;20214;-93
2024/02/10 12:20:29;;;;;;;19.20;15.50;;;;;;;;;;5073340;28;20757;-93
2024/02/10 12:22:56;;;;;;;12.03;8.67;;;;;;;;;;5087633;28;20219;-92
2024/02/10 12:25:24;;;;;;;5.10;4.30;;;;;;;;;;5086154;28;20233;-93
2024/02/10 12:27:51;;;;;;;4.73;4.33;;;;;;;;;;5087229;28;20212;-93
2024/02/10 12:30:19;;;;;;;4.13;3.47;;;;;;;;;;5073646;28;20636;-93
2024/02/10 12:32:48;;;;;;;6.73;3.87;;;;;;;;;;5088123;28;20259;-92
2024/02/10 12:35:16;;;;;;;5.83;3.13;;;;;;;;;;5093974;28;20214;-93
2024/02/10 12:37:45;;;;;;;5.10;4.60;;;;;;;;;;5091647;28;20263;-93
2024/02/10 12:40:13;;;;;;;7.23;4.80;;;;;;;;;;5073447;28;20234;-93
2024/02/10 12:42:43;;;;;;;9.00;5.00;;;;;;;;;;5076582;28;20204;-92
2024/02/10 12:45:13;;;;;;;6.27;4.43;;;;;;;;;;5093609;28;20227;-93
2024/02/10 12:47:43;;;;;;;5.67;4.17;;;;;;;;;;5093607;28;20212;-93
2024/02/10 12:50:10;;;;;;;13.00;8.20;;;;;;;;;;5093373;28;20232;-93
2024/02/10 12:52:38;;;;;;;10.90;9.37;;;;;;;;;;5092710;28;20192;-93
2024/02/10 12:55:09;;;;;;;4.87;3.10;;;;;;;;;;5094181;28;20208;-93
2024/02/10 12:57:37;;;;;;;12.60;9.60;;;;;;;;;;5092891;28;20235;-93
2024/02/10 13:00:22;;;;;;;12.03;10.10;;;;;;;;;;5092960;28;20220;-93
2024/02/10 13:02:49;;;;;;;8.17;6.67;;;;;;;;;;5081786;28;20208;-93
2024/02/10 13:05:18;;;;;;;16.07;12.33;;;;;;;;;;5092642;28;20285;-93
2024/02/10 13:07:45;;;;;;;15.43;9.43;;;;;;;;;;5093258;28;20211;-92
2024/02/10 13:10:19;;;;;;;16.67;13.20;;;;;;;;;;5106567;28;20242;-93
2024/02/10 13:12:52;;;;;;;13.17;9.47;;;;;;;;;;5081842;28;20211;-93
2024/02/10 13:15:23;;;;;;;17.53;13.33;;;;;;;;;;5104528;28;20200;-93
2024/02/10 13:17:53;;;;;;;13.70;8.67;;;;;;;;;;5092835;28;20328;-93
2024/02/10 13:20:21;;;;;;;19.40;6.23;;;;;;;;;;5092694;28;20598;-93
2024/02/10 13:22:48;;;;;;;21.63;16.33;;;;;;;;;;5092584;28;20725;-94
2024/02/10 13:25:14;;;;;;;8.70;6.53;;;;;;;;;;5079474;28;20223;-92
2024/02/10 13:27:41;;;;;;;10.93;8.90;;;;;;;;;;5093315;28;20755;-92
2024/02/10 13:30:09;;;;;;;6.03;4.17;;;;;;;;;;5105787;28;20294;-92
2024/02/10 13:32:38;;;;;;;4.77;3.70;;;;;;;;;;5078424;28;20327;-92
2024/02/10 13:35:05;;;;;;;5.43;3.40;;;;;;;;;;5080190;28;20210;-92
2024/02/10 14:04:53;;;;;;;17.03;12.50;;;;;;;;;;5058068;28;20661;-93
2024/02/10 14:08:26;;;;;;;20.43;14.27;;;;;;;;;;5092598;28;20203;-92
2024/02/10 14:10:23;;;;;;;26.43;21.57;;;;;;;;;;5091892;28;20207;-92
2024/02/10 14:12:57;;;;;;;23.77;14.80;;;;;;;;;;5081534;28;20211;-92
2024/02/10 14:15:28;;;;;;;8.40;6.80;;;;;;;;;;5091285;28;20233;-93
2024/02/10 14:17:59;;;;;;;12.53;9.37;;;;;;;;;;5092329;28;20579;-92
2024/02/10 14:20:29;;;;;;;11.93;10.67;;;;;;;;;;5078703;28;20208;-93
2024/02/10 14:22:59;;;;;;;13.17;9.30;;;;;;;;;;5092168;28;20298;-92
2024/02/10 14:25:27;;;;;;;7.63;6.93;;;;;;;;;;5096746;28;20239;-93
2024/02/10 14:27:58;;;;;;;18.60;12.90;;;;;;;;;;5086803;28;20212;-93
2024/02/10 14:30:34;;;;;;;14.87;10.80;;;;;;;;;;5083223;28;20584;-93
2024/02/10 14:33:06;;;;;;;9.67;5.77;;;;;;;;;;5088167;28;20235;-93
2024/02/10 14:38:30;;;;;;;21.90;16.87;;;;;;;;;;5069888;28;20670;-93
2024/02/10 14:40:58;;;;;;;40.13;28.03;;;;;;;;;;5087796;28;20207;-93
2024/02/10 14:43:25;;;;;;;52.87;35.10;;;;;;;;;;5092332;28;20225;-93
2024/02/10 14:45:53;;;;;;;39.67;29.10;;;;;;;;;;5089103;28;20228;-93
2024/02/10 14:48:22;;;;;;;65.53;41.10;;;;;;;;;;5081611;28;20211;-93
2024/02/10 14:50:52;;;;;;;59.33;40.77;;;;;;;;;;5075093;28;20198;-92
2024/02/10 14:53:24;;;;;;;103.43;77.90;;;;;;;;;;5085523;28;20214;-92
2024/02/10 14:55:51;;;;;;;84.67;48.43;;;;;;;;;;5095651;28;20205;-93
2024/02/10 14:58:18;;;;;;;43.03;28.13;;;;;;;;;;5095304;28;20292;-92
2024/02/10 15:00:45;;;;;;;62.37;38.90;;;;;;;;;;5095107;28;20689;-93
2024/02/10 15:03:14;;;;;;;58.23;37.27;;;;;;;;;;5095803;28;20246;-92
2024/02/10 15:05:42;;;;;;;53.67;34.57;;;;;;;;;;5095124;28;20221;-93
2024/02/10 15:08:11;;;;;;;54.43;31.20;;;;;;;;;;5095927;28;20210;-92